sensor_id;sensor_type;location;lat;lon;timestamp;pressure;altitude;pressure_sealevel;temperature;humidity
74441;BME280;62870;54.692;25.284;2022-09-25T00:03:49;1027;;;10;66.1
74441;BME280;62870;54.692;25.284;2022-09-25T00:08:25;1026.9;;;10.1;66
74441;BME280;62870;54.692;25.284;2022-09-25T00:13:25;1026.9;;;10;65.9
74441;BME280;62870;54.692;25.284;2022-09-25T00:18:35;1026.9;;;10.1;66.5
74441;BME280;62870;54.692;25.284;2022-09-25T00:24:00;1026.9;;;10.1;66.4
74441;BME280;62870;54.692;25.284;2022-09-25T00:28:59;1026.9;;;10.1;67
74441;BME280;62870;54.692;25.284;2022-09-25T00:33:50;1026.8;;;10.2;66.8
74441;BME280;62870;54.692;25.284;2022-09-25T00:38:47;1026.8;;;10.1;66.5
74441;BME280;62870;54.692;25.284;2022-09-25T00:44:01;1026.8;;;10.1;67
74441;BME280;62870;54.692;25.284;2022-09-25T00:49:13;1026.8;;;10.2;66.6
74441;BME280;62870;54.692;25.284;2022-09-25T00:53:26;1026.8;;;10.3;66.4
74441;BME280;62870;54.692;25.284;2022-09-25T00:58:27;1026.8;;;10.3;66.4
74441;BME280;62870;54.692;25.284;2022-09-25T01:03:27;1026.8;;;10.3;66.2
74441;BME280;62870;54.692;25.284;2022-09-25T01:08:25;1026.8;;;10.4;66.2
74441;BME280;62870;54.692;25.284;2022-09-25T01:13:25;1026.8;;;10.3;66.2
74441;BME280;62870;54.692;25.284;2022-09-25T01:18:36;1026.7;;;10.1;66.7
74441;BME280;62870;54.692;25.284;2022-09-25T01:29:17;1026.7;;;10.1;68.3
74441;BME280;62870;54.692;25.284;2022-09-25T01:33:29;1026.6;;;10.1;68.4
74441;BME280;62870;54.692;25.284;2022-09-25T01:39:21;1026.6;;;10.1;68.1
74441;BME280;62870;54.692;25.284;2022-09-25T01:44:12;1026.6;;;10.1;67.8
74441;BME280;62870;54.692;25.284;2022-09-25T01:48:26;1026.7;;;10;68
74441;BME280;62870;54.692;25.284;2022-09-25T01:53:26;1026.7;;;9.8;68.5
74441;BME280;62870;54.692;25.284;2022-09-25T01:58:37;1026.7;;;9.7;69
74441;BME280;62870;54.692;25.284;2022-09-25T02:04:12;1026.7;;;9.7;69
74441;BME280;62870;54.692;25.284;2022-09-25T02:08:49;1026.7;;;9.6;68.9
74441;BME280;62870;54.692;25.284;2022-09-25T02:14:03;1026.7;;;9.5;68.9
74441;BME280;62870;54.692;25.284;2022-09-25T02:19:01;1026.6;;;9.5;69
74441;BME280;62870;54.692;25.284;2022-09-25T02:23:32;1026.6;;;9.4;69.3
74441;BME280;62870;54.692;25.284;2022-09-25T02:28:51;1026.6;;;9.3;70
74441;BME280;62870;54.692;25.284;2022-09-25T02:33:59;1026.6;;;9.3;70
74441;BME280;62870;54.692;25.284;2022-09-25T02:38:27;1026.6;;;9.2;69.7
74441;BME280;62870;54.692;25.284;2022-09-25T02:43:44;1026.5;;;9;69.9
74441;BME280;62870;54.692;25.284;2022-09-25T02:48:57;1026.5;;;8.8;70.4
74441;BME280;62870;54.692;25.284;2022-09-25T02:54:20;1026.5;;;8.7;70.5
74441;BME280;62870;54.692;25.284;2022-09-25T02:59:05;1026.5;;;8.6;70.7
74441;BME280;62870;54.692;25.284;2022-09-25T03:03:50;1026.5;;;8.6;70.4
74441;BME280;62870;54.692;25.284;2022-09-25T03:08:27;1026.5;;;8.5;70.1
74441;BME280;62870;54.692;25.284;2022-09-25T03:14:00;1026.5;;;8.4;70.2
74441;BME280;62870;54.692;25.284;2022-09-25T03:19:17;1026.5;;;8.3;70.7
74441;BME280;62870;54.692;25.284;2022-09-25T03:23:49;1026.5;;;8.2;71.1
74441;BME280;62870;54.692;25.284;2022-09-25T03:28:27;1026.5;;;8.2;71.4
74441;BME280;62870;54.692;25.284;2022-09-25T03:33:28;1026.5;;;8.2;72
74441;BME280;62870;54.692;25.284;2022-09-25T03:38:25;1026.5;;;8.2;71.7
74441;BME280;62870;54.692;25.284;2022-09-25T03:43:48;1026.5;;;8.2;71.5
74441;BME280;62870;54.692;25.284;2022-09-25T03:48:49;1026.5;;;8.2;71.5
74441;BME280;62870;54.692;25.284;2022-09-25T03:53:59;1026.5;;;8.2;70.9
74441;BME280;62870;54.692;25.284;2022-09-25T03:59:15;1026.5;;;8.1;70.6
74441;BME280;62870;54.692;25.284;2022-09-25T04:03:49;1026.5;;;8;70.6
74441;BME280;62870;54.692;25.284;2022-09-25T04:09:15;1026.5;;;7.9;70.8
74441;BME280;62870;54.692;25.284;2022-09-25T04:14:17;1026.5;;;7.8;70.8
74441;BME280;62870;54.692;25.284;2022-09-25T04:18:27;1026.5;;;7.8;70.9
74441;BME280;62870;54.692;25.284;2022-09-25T04:23:39;1026.5;;;7.7;70.3
74441;BME280;62870;54.692;25.284;2022-09-25T04:28:27;1026.4;;;7.6;70.1
74441;BME280;62870;54.692;25.284;2022-09-25T04:34:17;1026.4;;;7.6;70.3
74441;BME280;62870;54.692;25.284;2022-09-25T04:39:01;1026.4;;;7.6;70.4
74441;BME280;62870;54.692;25.284;2022-09-25T04:43:51;1026.3;;;7.6;70.2
74441;BME280;62870;54.692;25.284;2022-09-25T04:49:05;1026.4;;;7.6;69.9
74441;BME280;62870;54.692;25.284;2022-09-25T04:54:03;1026.4;;;7.7;69.6
74441;BME280;62870;54.692;25.284;2022-09-25T04:58:49;1026.5;;;7.8;69.3
74441;BME280;62870;54.692;25.284;2022-09-25T05:04:01;1026.5;;;7.9;69.3
74441;BME280;62870;54.692;25.284;2022-09-25T05:09:15;1026.5;;;8;69.2
74441;BME280;62870;54.692;25.284;2022-09-25T05:13:27;1026.5;;;8.1;68.7
74441;BME280;62870;54.692;25.284;2022-09-25T05:18:27;1026.5;;;8.2;68.2
74441;BME280;62870;54.692;25.284;2022-09-25T05:23:49;1026.5;;;8.3;68
74441;BME280;62870;54.692;25.284;2022-09-25T05:29:13;1026.4;;;8.6;67.5
74441;BME280;62870;54.692;25.284;2022-09-25T05:34:13;1026.4;;;8.8;67.2
74441;BME280;62870;54.692;25.284;2022-09-25T05:38:49;1026.5;;;8.9;67
74441;BME280;62870;54.692;25.284;2022-09-25T05:44:15;1026.5;;;8.9;66.9
74441;BME280;62870;54.692;25.284;2022-09-25T05:49:13;1026.5;;;9;66.8
74441;BME280;62870;54.692;25.284;2022-09-25T05:53:52;1026.5;;;9.2;66.2
74441;BME280;62870;54.692;25.284;2022-09-25T05:58:28;1026.5;;;9.4;65.5
74441;BME280;62870;54.692;25.284;2022-09-25T06:03:40;1026.5;;;9.8;65
74441;BME280;62870;54.692;25.284;2022-09-25T06:08:52;1026.5;;;10.1;64.6
74441;BME280;62870;54.692;25.284;2022-09-25T06:13:35;1026.5;;;10.4;64.3
74441;BME280;62870;54.692;25.284;2022-09-25T06:19:15;1026.5;;;10.8;63.9
74441;BME280;62870;54.692;25.284;2022-09-25T06:24:13;1026.4;;;11.6;61.9
74441;BME280;62870;54.692;25.284;2022-09-25T06:29:03;1026.4;;;12.4;60.4
74441;BME280;62870;54.692;25.284;2022-09-25T06:33:49;1026.4;;;13.2;57
74441;BME280;62870;54.692;25.284;2022-09-25T06:39:15;1026.4;;;14.1;54.6
74441;BME280;62870;54.692;25.284;2022-09-25T06:44:01;1026.4;;;14.6;52.6
74441;BME280;62870;54.692;25.284;2022-09-25T06:49:15;1026.4;;;15.1;52.5
74441;BME280;62870;54.692;25.284;2022-09-25T06:53:37;1026.3;;;15.5;52.5
74441;BME280;62870;54.692;25.284;2022-09-25T06:58:37;1026.3;;;15.7;52.2
74441;BME280;62870;54.692;25.284;2022-09-25T07:04:01;1026.3;;;15.7;51.1
74441;BME280;62870;54.692;25.284;2022-09-25T07:08:49;1026.3;;;15.6;50.5
74441;BME280;62870;54.692;25.284;2022-09-25T07:13:47;1026.3;;;15.6;50.1
74441;BME280;62870;54.692;25.284;2022-09-25T07:18:35;1026.2;;;15.7;50.6
74441;BME280;62870;54.692;25.284;2022-09-25T07:24:03;1026.2;;;16;50.9
74441;BME280;62870;54.692;25.284;2022-09-25T07:28:54;1026.2;;;15.9;51.1
74441;BME280;62870;54.692;25.284;2022-09-25T07:34:01;1026.2;;;15.9;50.8
74441;BME280;62870;54.692;25.284;2022-09-25T07:39:03;1026.2;;;15.9;50.4
74441;BME280;62870;54.692;25.284;2022-09-25T07:43:27;1026.2;;;15.9;50.5
74441;BME280;62870;54.692;25.284;2022-09-25T07:48:37;1026.1;;;16.1;50.6
74441;BME280;62870;54.692;25.284;2022-09-25T07:54:17;1026.1;;;16.4;50.5
74441;BME280;62870;54.692;25.284;2022-09-25T07:59:17;1026.1;;;16.8;50.4
74441;BME280;62870;54.692;25.284;2022-09-25T08:04:15;1026.1;;;17.3;49
74441;BME280;62870;54.692;25.284;2022-09-25T08:08:38;1026.1;;;17.8;47
74441;BME280;62870;54.692;25.284;2022-09-25T08:14:17;1026.2;;;18.3;46.1
74441;BME280;62870;54.692;25.284;2022-09-25T08:19:10;1026.1;;;19;45.2
74441;BME280;62870;54.692;25.284;2022-09-25T08:23:52;1026.1;;;19.7;44.9
74441;BME280;62870;54.692;25.284;2022-09-25T08:28:39;1026;;;20.1;44.1
74441;BME280;62870;54.692;25.284;2022-09-25T08:34:05;1026;;;20.2;43.7
74441;BME280;62870;54.692;25.284;2022-09-25T08:38:51;1025.9;;;20.1;42.5
74441;BME280;62870;54.692;25.284;2022-09-25T08:44:08;1025.9;;;20.2;41.6
74441;BME280;62870;54.692;25.284;2022-09-25T08:48:52;1025.9;;;19.4;43.1
74441;BME280;62870;54.692;25.284;2022-09-25T08:54:19;1025.9;;;18.5;45.2
74441;BME280;62870;54.692;25.284;2022-09-25T08:59:18;1025.9;;;18.1;45.8
74441;BME280;62870;54.692;25.284;2022-09-25T09:03:39;1025.9;;;18.1;46.5
74441;BME280;62870;54.692;25.284;2022-09-25T09:09:21;1025.9;;;17.9;46.3
74441;BME280;62870;54.692;25.284;2022-09-25T09:14:06;1025.8;;;17.3;47.7
74441;BME280;62870;54.692;25.284;2022-09-25T09:19:08;1025.7;;;17.1;48
74441;BME280;62870;54.692;25.284;2022-09-25T09:23:32;1025.7;;;17.1;48.1
74441;BME280;62870;54.692;25.284;2022-09-25T09:33:39;1025.6;;;17.1;47.8
74441;BME280;62870;54.692;25.284;2022-09-25T09:39:33;1025.6;;;17.1;48.1
74441;BME280;62870;54.692;25.284;2022-09-25T09:44:06;1025.5;;;17.1;48.1
74441;BME280;62870;54.692;25.284;2022-09-25T09:50:13;1025.5;;;17.3;47.6
74441;BME280;62870;54.692;25.284;2022-09-25T09:54:14;1025.4;;;17.7;47.1
74441;BME280;62870;54.692;25.284;2022-09-25T09:59:03;1025.4;;;17.7;47.1
74441;BME280;62870;54.692;25.284;2022-09-25T10:03:52;1025.4;;;17.6;47.4
74441;BME280;62870;54.692;25.284;2022-09-25T10:09:02;1025.3;;;17.7;47
74441;BME280;62870;54.692;25.284;2022-09-25T10:13:39;1025.3;;;17.8;47.1
74441;BME280;62870;54.692;25.284;2022-09-25T10:18:29;1025.2;;;18.4;46.7
74441;BME280;62870;54.692;25.284;2022-09-25T10:23:32;1025.2;;;18.8;44.8
74441;BME280;62870;54.692;25.284;2022-09-25T10:29:24;1025.2;;;18.5;45
74441;BME280;62870;54.692;25.284;2022-09-25T10:34:15;1025.2;;;18.3;45.5
74441;BME280;62870;54.692;25.284;2022-09-25T10:38:43;1025.2;;;17.8;46.6
74441;BME280;62870;54.692;25.284;2022-09-25T10:43:49;1025.2;;;17.5;47.2
74441;BME280;62870;54.692;25.284;2022-09-25T10:48:53;1025;;;17.5;47.3
74441;BME280;62870;54.692;25.284;2022-09-25T10:54:15;1025;;;17.3;47.7
74441;BME280;62870;54.692;25.284;2022-09-25T10:58:51;1024.9;;;17;48.5
74441;BME280;62870;54.692;25.284;2022-09-25T11:04:04;1024.9;;;17.3;48.4
74441;BME280;62870;54.692;25.284;2022-09-25T11:08:28;1024.9;;;17.7;47.5
74441;BME280;62870;54.692;25.284;2022-09-25T11:13:32;1024.8;;;18;46.7
74441;BME280;62870;54.692;25.284;2022-09-25T11:18:45;1024.8;;;18.1;46.5
74441;BME280;62870;54.692;25.284;2022-09-25T11:25:14;1024.7;;;18;46.2
74441;BME280;62870;54.692;25.284;2022-09-25T11:29:22;1024.7;;;17.9;46.2
74441;BME280;62870;54.692;25.284;2022-09-25T11:34:39;1024.6;;;17.8;46.3
74441;BME280;62870;54.692;25.284;2022-09-25T11:38:53;1024.6;;;17.8;46.5
74441;BME280;62870;54.692;25.284;2022-09-25T11:44:54;1024.5;;;18;46.3
74441;BME280;62870;54.692;25.284;2022-09-25T11:49:20;1024.5;;;18.6;45
74441;BME280;62870;54.692;25.284;2022-09-25T11:53:43;1024.4;;;18.5;44.6
74441;BME280;62870;54.692;25.284;2022-09-25T12:09:21;1024.3;;;18.5;43.6
74441;BME280;62870;54.692;25.284;2022-09-25T12:13:42;1024.3;;;18.7;43.4
74441;BME280;62870;54.692;25.284;2022-09-25T12:19:03;1024.2;;;18.9;43
74441;BME280;62870;54.692;25.284;2022-09-25T12:23:46;1024.2;;;18.9;42.9
74441;BME280;62870;54.692;25.284;2022-09-25T12:29:08;1024.2;;;19;42.2
74441;BME280;62870;54.692;25.284;2022-09-25T12:33:47;1024.1;;;18.6;42.4
74441;BME280;62870;54.692;25.284;2022-09-25T12:39:17;1024.1;;;18.5;43
74441;BME280;62870;54.692;25.284;2022-09-25T12:43:49;1024.1;;;18.3;43.4
74441;BME280;62870;54.692;25.284;2022-09-25T12:48:36;1024;;;18.1;43.8
74441;BME280;62870;54.692;25.284;2022-09-25T12:53:37;1024.1;;;18.1;43.6
74441;BME280;62870;54.692;25.284;2022-09-25T12:59:19;1024.1;;;17.8;44.3
74441;BME280;62870;54.692;25.284;2022-09-25T13:04:08;1024.1;;;17.8;44.6
74441;BME280;62870;54.692;25.284;2022-09-25T13:08:56;1024;;;17.7;44.4
74441;BME280;62870;54.692;25.284;2022-09-25T13:13:53;1024;;;17.7;44.7
74441;BME280;62870;54.692;25.284;2022-09-25T13:19:20;1023.9;;;17.5;45.4
74441;BME280;62870;54.692;25.284;2022-09-25T13:24:15;1023.9;;;17.4;46.2
74441;BME280;62870;54.692;25.284;2022-09-25T13:28:51;1023.9;;;17.3;47.9
74441;BME280;62870;54.692;25.284;2022-09-25T13:34:03;1023.9;;;17.3;47.5
74441;BME280;62870;54.692;25.284;2022-09-25T13:38:43;1024;;;17;47.4
74441;BME280;62870;54.692;25.284;2022-09-25T13:43:39;1024;;;16.7;47.9
74441;BME280;62870;54.692;25.284;2022-09-25T13:48:48;1023.9;;;16.5;48.3
74441;BME280;62870;54.692;25.284;2022-09-25T13:54:05;1023.9;;;16.4;49
74441;BME280;62870;54.692;25.284;2022-09-25T13:59:22;1023.9;;;16.3;49.9
74441;BME280;62870;54.692;25.284;2022-09-25T14:03:57;1023.9;;;16.2;50.4
74441;BME280;62870;54.692;25.284;2022-09-25T14:08:53;1023.8;;;16.2;50.3
74441;BME280;62870;54.692;25.284;2022-09-25T14:14:27;1023.8;;;16.3;50.1
74441;BME280;62870;54.692;25.284;2022-09-25T14:19:03;1023.7;;;16.3;49.9
74441;BME280;62870;54.692;25.284;2022-09-25T14:24:10;1023.7;;;16.4;50.2
74441;BME280;62870;54.692;25.284;2022-09-25T14:28:28;1023.7;;;16.3;50.6
74441;BME280;62870;54.692;25.284;2022-09-25T14:33:41;1023.7;;;16.4;50.8
74441;BME280;62870;54.692;25.284;2022-09-25T14:48:40;1023.6;;;16.7;50.3
74441;BME280;62870;54.692;25.284;2022-09-25T14:54:04;1023.5;;;16.6;50.3
74441;BME280;62870;54.692;25.284;2022-09-25T14:59:08;1023.5;;;16.6;50.6
74441;BME280;62870;54.692;25.284;2022-09-25T15:03:37;1023.5;;;16.6;50.5
74441;BME280;62870;54.692;25.284;2022-09-25T15:09:00;1023.5;;;16.6;50.4
74441;BME280;62870;54.692;25.284;2022-09-25T15:14:16;1023.5;;;16.6;50.2
74441;BME280;62870;54.692;25.284;2022-09-25T15:18:27;1023.4;;;16.7;50.2
74441;BME280;62870;54.692;25.284;2022-09-25T15:23:47;1023.5;;;16.6;50.4
74441;BME280;62870;54.692;25.284;2022-09-25T15:29:16;1023.5;;;16.6;50.7
74441;BME280;62870;54.692;25.284;2022-09-25T15:34:13;1023.4;;;16.5;51.1
74441;BME280;62870;54.692;25.284;2022-09-25T15:39:15;1023.4;;;16.3;51.7
74441;BME280;62870;54.692;25.284;2022-09-25T15:43:27;1023.4;;;16.3;52
74441;BME280;62870;54.692;25.284;2022-09-25T15:49:19;1023.4;;;16.3;52.1
74441;BME280;62870;54.692;25.284;2022-09-25T15:54:28;1023.4;;;16.3;52.2
74441;BME280;62870;54.692;25.284;2022-09-25T15:58:42;1023.4;;;16.2;53
74441;BME280;62870;54.692;25.284;2022-09-25T16:03:28;1023.3;;;16.1;53.7
74441;BME280;62870;54.692;25.284;2022-09-25T16:09:07;1023.3;;;16;54.1
74441;BME280;62870;54.692;25.284;2022-09-25T16:13:38;1023.3;;;16;54
74441;BME280;62870;54.692;25.284;2022-09-25T16:18:38;1023.3;;;16;54.1
74441;BME280;62870;54.692;25.284;2022-09-25T16:23:37;1023.3;;;16;54.1
74441;BME280;62870;54.692;25.284;2022-09-25T16:29:18;1023.3;;;15.9;54.5
74441;BME280;62870;54.692;25.284;2022-09-25T16:34:06;1023.3;;;15.8;55.1
74441;BME280;62870;54.692;25.284;2022-09-25T16:39:11;1023.3;;;15.8;55.6
74441;BME280;62870;54.692;25.284;2022-09-25T16:44:17;1023.2;;;15.8;55.5
74441;BME280;62870;54.692;25.284;2022-09-25T16:49:05;1023.2;;;15.9;55.6
74441;BME280;62870;54.692;25.284;2022-09-25T16:54:16;1023.2;;;15.8;55.4
74441;BME280;62870;54.692;25.284;2022-09-25T16:58:37;1023.2;;;15.8;55.6
74441;BME280;62870;54.692;25.284;2022-09-25T17:03:27;1023.2;;;15.7;56.1
74441;BME280;62870;54.692;25.284;2022-09-25T17:09:16;1023.2;;;15.7;56.3
74441;BME280;62870;54.692;25.284;2022-09-25T17:14:20;1023.2;;;15.6;57.1
74441;BME280;62870;54.692;25.284;2022-09-25T17:18:27;1023.2;;;15.4;57.8
74441;BME280;62870;54.692;25.284;2022-09-25T17:23:37;1023.2;;;15.2;58.6
74441;BME280;62870;54.692;25.284;2022-09-25T17:29:04;1023.1;;;15.1;59.8
74441;BME280;62870;54.692;25.284;2022-09-25T17:33:48;1023.1;;;14.8;62
74441;BME280;62870;54.692;25.284;2022-09-25T17:38:59;1023.1;;;14.6;62.7
74441;BME280;62870;54.692;25.284;2022-09-25T17:44:18;1023.1;;;14.5;63.2
74441;BME280;62870;54.692;25.284;2022-09-25T17:48:37;1023.1;;;14.4;62.9
74441;BME280;62870;54.692;25.284;2022-09-25T17:54:04;1023.1;;;14.3;62.6
74441;BME280;62870;54.692;25.284;2022-09-25T17:59:04;1023.1;;;14.3;62.9
74441;BME280;62870;54.692;25.284;2022-09-25T18:03:59;1023.1;;;14.1;64.2
74441;BME280;62870;54.692;25.284;2022-09-25T18:09:14;1023;;;14.1;64.8
74441;BME280;62870;54.692;25.284;2022-09-25T18:13:54;1023;;;14;64.9
74441;BME280;62870;54.692;25.284;2022-09-25T18:18:53;1023;;;14;64.2
74441;BME280;62870;54.692;25.284;2022-09-25T18:24:04;1022.9;;;14.1;63.9
74441;BME280;62870;54.692;25.284;2022-09-25T18:29:14;1022.9;;;14.1;63.9
74441;BME280;62870;54.692;25.284;2022-09-25T18:33:38;1022.8;;;14.1;64.2
74441;BME280;62870;54.692;25.284;2022-09-25T18:38:27;1022.8;;;14.1;64.4
74441;BME280;62870;54.692;25.284;2022-09-25T18:43:35;1022.8;;;14.2;64.3
74441;BME280;62870;54.692;25.284;2022-09-25T18:48:37;1022.8;;;14.2;64.5
74441;BME280;62870;54.692;25.284;2022-09-25T18:53:49;1022.8;;;14.2;64.1
74441;BME280;62870;54.692;25.284;2022-09-25T18:59:01;1022.8;;;14.2;64
74441;BME280;62870;54.692;25.284;2022-09-25T19:04:05;1022.8;;;14.2;64.5
74441;BME280;62870;54.692;25.284;2022-09-25T19:09:14;1022.8;;;14.2;64.6
74441;BME280;62870;54.692;25.284;2022-09-25T19:14:02;1022.8;;;14.2;64.6
74441;BME280;62870;54.692;25.284;2022-09-25T19:19:12;1022.7;;;14.1;65.5
74441;BME280;62870;54.692;25.284;2022-09-25T19:24:12;1022.8;;;13.9;65.3
74441;BME280;62870;54.692;25.284;2022-09-25T19:28:36;1022.7;;;13.9;65.1
74441;BME280;62870;54.692;25.284;2022-09-25T19:33:28;1022.7;;;13.8;65.4
74441;BME280;62870;54.692;25.284;2022-09-25T19:38:58;1022.7;;;13.8;65.8
74441;BME280;62870;54.692;25.284;2022-09-25T19:44:16;1022.7;;;13.6;66.8
74441;BME280;62870;54.692;25.284;2022-09-25T19:49:00;1022.7;;;13.5;67.1
74441;BME280;62870;54.692;25.284;2022-09-25T19:54:02;1022.7;;;13.5;66.9
74441;BME280;62870;54.692;25.284;2022-09-25T19:58:52;1022.7;;;13.5;66.4
74441;BME280;62870;54.692;25.284;2022-09-25T20:04:02;1022.7;;;13.4;66.5
74441;BME280;62870;54.692;25.284;2022-09-25T20:08:40;1022.6;;;13.2;67.4
74441;BME280;62870;54.692;25.284;2022-09-25T20:14:00;1022.6;;;13.2;68.4
74441;BME280;62870;54.692;25.284;2022-09-25T20:18:53;1022.5;;;13.3;67.6
74441;BME280;62870;54.692;25.284;2022-09-25T20:23:28;1022.6;;;13.2;67.5
74441;BME280;62870;54.692;25.284;2022-09-25T20:28:38;1022.6;;;13.2;67.3
74441;BME280;62870;54.692;25.284;2022-09-25T20:34:16;1022.6;;;13.2;67.3
74441;BME280;62870;54.692;25.284;2022-09-25T20:39:00;1022.5;;;13.1;67.7
74441;BME280;62870;54.692;25.284;2022-09-25T20:43:52;1022.5;;;13.1;68
74441;BME280;62870;54.692;25.284;2022-09-25T20:49:02;1022.5;;;13;68.2
74441;BME280;62870;54.692;25.284;2022-09-25T20:54:16;1022.5;;;13;68.2
74441;BME280;62870;54.692;25.284;2022-09-25T20:59:14;1022.5;;;12.9;68
74441;BME280;62870;54.692;25.284;2022-09-25T21:03:36;1022.5;;;12.8;68.6
74441;BME280;62870;54.692;25.284;2022-09-25T21:08:28;1022.5;;;12.6;69.3
74441;BME280;62870;54.692;25.284;2022-09-25T21:13:52;1022.5;;;12.5;69.5
74441;BME280;62870;54.692;25.284;2022-09-25T21:18:28;1022.5;;;12.5;69.7
74441;BME280;62870;54.692;25.284;2022-09-25T21:23:51;1022.5;;;12.6;69.2
74441;BME280;62870;54.692;25.284;2022-09-25T21:28:39;1022.5;;;12.6;68.9
74441;BME280;62870;54.692;25.284;2022-09-25T21:34:06;1022.5;;;12.5;68.8
74441;BME280;62870;54.692;25.284;2022-09-25T21:39:16;1022.5;;;12.4;69.6
74441;BME280;62870;54.692;25.284;2022-09-25T21:44:08;1022.5;;;12.3;69.8
74441;BME280;62870;54.692;25.284;2022-09-25T21:49:18;1022.4;;;12.3;70.2
74441;BME280;62870;54.692;25.284;2022-09-25T21:54:18;1022.4;;;12.2;70.5
74441;BME280;62870;54.692;25.284;2022-09-25T21:58:28;1022.4;;;12.1;70.5
74441;BME280;62870;54.692;25.284;2022-09-25T22:03:28;1022.3;;;12;70.9
74441;BME280;62870;54.692;25.284;2022-09-25T22:08:39;1022.3;;;11.9;70.8
74441;BME280;62870;54.692;25.284;2022-09-25T22:14:16;1022.3;;;11.9;70.6
74441;BME280;62870;54.692;25.284;2022-09-25T22:19:17;1022.3;;;11.8;70.9
74441;BME280;62870;54.692;25.284;2022-09-25T22:24:04;1022.2;;;11.7;71.2
74441;BME280;62870;54.692;25.284;2022-09-25T22:29:02;1022.2;;;11.8;70.9
74441;BME280;62870;54.692;25.284;2022-09-25T22:34:00;1022.2;;;11.8;70.6
74441;BME280;62870;54.692;25.284;2022-09-25T22:39:04;1022.2;;;11.8;70.5
74441;BME280;62870;54.692;25.284;2022-09-25T22:44:18;1022.1;;;12;70.2
74441;BME280;62870;54.692;25.284;2022-09-25T22:49:12;1022.1;;;12.1;69.8
74441;BME280;62870;54.692;25.284;2022-09-25T22:53:28;1022.1;;;12.1;70
74441;BME280;62870;54.692;25.284;2022-09-25T22:58:36;1022.1;;;12;70.6
74441;BME280;62870;54.692;25.284;2022-09-25T23:04:16;1022.2;;;12;70.3
74441;BME280;62870;54.692;25.284;2022-09-25T23:09:15;1022.1;;;11.9;69.8
74441;BME280;62870;54.692;25.284;2022-09-25T23:14:15;1022.1;;;11.9;69.9
74441;BME280;62870;54.692;25.284;2022-09-25T23:18:50;1022;;;11.9;70.1
74441;BME280;62870;54.692;25.284;2022-09-25T23:24:15;1022;;;11.9;70.2
74441;BME280;62870;54.692;25.284;2022-09-25T23:29:14;1021.9;;;11.9;69.9
74441;BME280;62870;54.692;25.284;2022-09-25T23:33:48;1021.9;;;11.8;69.9
74441;BME280;62870;54.692;25.284;2022-09-25T23:38:48;1021.9;;;11.7;69.9
74441;BME280;62870;54.692;25.284;2022-09-25T23:43:34;1021.8;;;11.6;70.3
74441;BME280;62870;54.692;25.284;2022-09-25T23:48:34;1021.8;;;11.6;70.7
74441;BME280;62870;54.692;25.284;2022-09-25T23:53:46;1021.7;;;11.6;70.6
74441;BME280;62870;54.692;25.284;2022-09-25T23:58:47;1021.7;;;11.5;70.8
